Time;durP1;ratioP1;P1;durP2;ratioP2;P2;SDS_P1;SDS_P2;PMS_P1;PMS_P2;Temp;Humidity;BMP_temperature;BMP_pressure;BME280_temperature;BME280_humidity;BME280_pressure;Samples;Min_cycle;Max_cycle;Signal;HPM_P1;HPM_P2
2023/04/25 00:01:35;;;;;;;;;;;;;;;8.23;nan;99927.09;5056786;28;19921;-78
2023/04/25 00:04:02;;;;;;;;;;;;;;;8.25;nan;99916.41;5037872;28;20363;-77
2023/04/25 00:06:27;;;;;;;;;;;;;;;8.24;nan;99914.72;5055892;28;19930;-79
2023/04/25 00:08:53;;;;;;;;;;;;;;;8.23;nan;99921.00;5025378;28;19920;-79
2023/04/25 00:11:18;;;;;;;;;;;;;;;8.21;nan;99921.13;5025045;28;19925;-78
2023/04/25 00:13:46;;;;;;;;;;;;;;;8.20;nan;99914.22;5024249;28;19925;-77
2023/04/25 00:16:13;;;;;;;;;;;;;;;8.19;nan;99912.56;5031092;28;19928;-78
2023/04/25 00:18:38;;;;;;;;;;;;;;;8.21;nan;99912.41;5034396;28;19925;-78
2023/04/25 00:21:06;;;;;;;;;;;;;;;8.21;nan;99910.59;5035082;28;19925;-78
2023/04/25 00:23:31;;;;;;;;;;;;;;;8.21;nan;99909.78;5033677;28;19979;-78
2023/04/25 00:25:56;;;;;;;;;;;;;;;8.21;nan;99915.88;5051927;28;19956;-79
2023/04/25 00:28:21;;;;;;;;;;;;;;;8.21;nan;99920.31;5033293;28;19929;-78
2023/04/25 00:30:47;;;;;;;;;;;;;;;8.20;nan;99914.22;5051317;28;21376;-78
2023/04/25 00:33:12;;;;;;;;;;;;;;;8.18;nan;99907.47;5050848;28;19921;-78
2023/04/25 00:35:38;;;;;;;;;;;;;;;8.15;nan;99913.84;5049116;28;19928;-78
2023/04/25 00:38:03;;;;;;;;;;;;;;;8.15;nan;99911.22;5050770;28;19925;-79
2023/04/25 00:40:28;;;;;;;;;;;;;;;8.12;nan;99908.88;5031903;28;19928;-78
2023/04/25 00:42:53;;;;;;;;;;;;;;;8.10;nan;99910.81;5048205;28;19939;-79
2023/04/25 00:45:19;;;;;;;;;;;;;;;8.10;nan;99910.81;5032611;28;19935;-77
2023/04/25 00:47:45;;;;;;;;;;;;;;;8.09;nan;99915.28;5027095;28;19936;-78
2023/04/25 00:50:10;;;;;;;;;;;;;;;8.10;nan;99910.81;5032233;28;19984;-78
2023/04/25 00:52:37;;;;;;;;;;;;;;;8.10;nan;99900.28;5050529;28;19959;-78
2023/04/25 00:55:02;;;;;;;;;;;;;;;8.11;nan;99901.13;5029736;28;19925;-78
2023/04/25 00:57:28;;;;;;;;;;;;;;;8.08;nan;99892.56;5047614;28;20576;-78
2023/04/25 00:59:54;;;;;;;;;;;;;;;8.10;nan;99897.66;5034326;28;19921;-78
2023/04/25 01:02:20;;;;;;;;;;;;;;;8.10;nan;99897.66;5029884;28;19958;-78
2023/04/25 01:04:46;;;;;;;;;;;;;;;8.09;nan;99902.09;5030455;28;20033;-78
2023/04/25 01:07:11;;;;;;;;;;;;;;;8.08;nan;99889.09;5047389;28;19936;-78
2023/04/25 01:09:36;;;;;;;;;;;;;;;8.09;nan;99888.13;5025001;28;19943;-79
2023/04/25 01:12:02;;;;;;;;;;;;;;;8.11;nan;99890.59;5029278;28;19921;-77
2023/04/25 01:14:28;;;;;;;;;;;;;;;8.11;nan;99886.16;5035146;28;19928;-78
2023/04/25 01:16:53;;;;;;;;;;;;;;;8.08;nan;99886.47;5025789;28;20507;-79
2023/04/25 01:19:19;;;;;;;;;;;;;;;8.01;nan;99891.50;5044566;28;19958;-79
2023/04/25 01:21:45;;;;;;;;;;;;;;;7.99;nan;99884.75;5049198;28;19947;-78
2023/04/25 01:24:10;;;;;;;;;;;;;;;8.00;nan;99883.75;5029098;28;19956;-79
2023/04/25 01:26:36;;;;;;;;;;;;;;;8.01;nan;99875.72;5045892;28;19924;-76
2023/04/25 01:29:03;;;;;;;;;;;;;;;7.96;nan;99880.59;5028043;28;19925;-79
2023/04/25 01:31:28;;;;;;;;;;;;;;;7.97;nan;99878.78;5048577;28;20462;-78
2023/04/25 01:33:54;;;;;;;;;;;;;;;7.99;nan;99879.47;5029390;28;19947;-78
2023/04/25 01:36:20;;;;;;;;;;;;;;;8.02;nan;99876.53;5049506;28;19925;-78
2023/04/25 01:38:47;;;;;;;;;;;;;;;8.07;nan;99883.00;5050324;28;19955;-79
2023/04/25 01:41:12;;;;;;;;;;;;;;;8.09;nan;99886.31;5026683;28;19956;-77
2023/04/25 01:43:37;;;;;;;;;;;;;;;8.13;nan;99880.72;5029574;28;19921;-78
2023/04/25 01:46:03;;;;;;;;;;;;;;;8.14;nan;99882.41;5023565;28;19917;-78
2023/04/25 01:48:29;;;;;;;;;;;;;;;8.12;nan;99879.91;5045780;28;19921;-78
2023/04/25 01:50:54;;;;;;;;;;;;;;;8.09;nan;99886.31;5035990;28;20402;-79
2023/04/25 01:53:19;;;;;;;;;;;;;;;8.11;nan;99885.34;5051393;28;19947;-78
2023/04/25 01:55:44;;;;;;;;;;;;;;;8.06;nan;99883.97;5044241;28;19929;-78
2023/04/25 01:58:12;;;;;;;;;;;;;;;8.07;nan;99882.16;5045269;28;19917;-78
2023/04/25 02:00:38;;;;;;;;;;;;;;;8.05;nan;99882.31;5042996;28;19925;-78
2023/04/25 02:03:04;;;;;;;;;;;;;;;8.05;nan;99878.84;5053434;28;20120;-78
2023/04/25 02:05:34;;;;;;;;;;;;;;;8.02;nan;99880.00;5036394;28;20020;-78
2023/04/25 02:07:59;;;;;;;;;;;;;;;7.98;nan;99877.81;5035703;28;19929;-78
2023/04/25 02:10:24;;;;;;;;;;;;;;;7.97;nan;99887.50;5050661;28;19936;-78
2023/04/25 02:12:50;;;;;;;;;;;;;;;7.96;nan;99891.13;5032775;28;19920;-77
2023/04/25 02:15:15;;;;;;;;;;;;;;;7.99;nan;99892.66;5033009;28;19952;-78
2023/04/25 02:17:40;;;;;;;;;;;;;;;8.02;nan;99892.34;5033405;28;19957;-79
2023/04/25 02:20:06;;;;;;;;;;;;;;;8.03;nan;99891.34;5050059;28;19921;-79
2023/04/25 02:22:31;;;;;;;;;;;;;;;8.01;nan;99890.69;5032935;28;20000;-76
2023/04/25 02:24:57;;;;;;;;;;;;;;;8.01;nan;99882.78;5052955;28;19920;-78
2023/04/25 02:27:22;;;;;;;;;;;;;;;7.96;nan;99887.66;5034017;28;19921;-77
2023/04/25 02:29:47;;;;;;;;;;;;;;;7.96;nan;99887.66;5049563;28;19927;-77
2023/04/25 02:32:12;;;;;;;;;;;;;;;7.94;nan;99882.56;5030142;28;19925;-78
2023/04/25 02:34:37;;;;;;;;;;;;;;;7.95;nan;99878.13;5052021;28;19928;-79
2023/04/25 02:37:03;;;;;;;;;;;;;;;7.96;nan;99885.03;5048139;28;19925;-77
2023/04/25 02:39:28;;;;;;;;;;;;;;;7.95;nan;99880.75;5046263;28;19928;-78
2023/04/25 02:41:53;;;;;;;;;;;;;;;7.93;nan;99880.88;5028975;28;19956;-78
2023/04/25 02:44:18;;;;;;;;;;;;;;;7.95;nan;99878.13;5027530;28;19932;-77
2023/04/25 02:46:43;;;;;;;;;;;;;;;7.96;nan;99869.22;5030769;28;19932;-77
2023/04/25 02:49:09;;;;;;;;;;;;;;;7.96;nan;99874.50;5041560;28;19947;-78
2023/04/25 02:51:34;;;;;;;;;;;;;;;7.98;nan;99875.16;5047811;28;19925;-78
2023/04/25 02:53:59;;;;;;;;;;;;;;;7.98;nan;99864.63;5029301;28;20673;-76
2023/04/25 02:56:25;;;;;;;;;;;;;;;7.99;nan;99867.13;5046065;28;20273;-77
2023/04/25 02:58:51;;;;;;;;;;;;;;;7.97;nan;99876.97;5044748;28;20340;-77
2023/04/25 03:01:16;;;;;;;;;;;;;;;7.96;nan;99874.50;5031415;28;19982;-77
2023/04/25 03:03:41;;;;;;;;;;;;;;;7.96;nan;99875.34;5045184;28;19927;-77
2023/04/25 03:06:06;;;;;;;;;;;;;;;8.01;nan;99872.25;5044414;28;20028;-78
2023/04/25 03:08:32;;;;;;;;;;;;;;;8.04;nan;99871.94;5031016;28;20461;-78
2023/04/25 03:10:58;;;;;;;;;;;;;;;8.07;nan;99871.63;5048793;28;19929;-77
2023/04/25 03:13:23;;;;;;;;;;;;;;;8.09;nan;99872.31;5030726;28;19920;-78
2023/04/25 03:15:48;;;;;;;;;;;;;;;8.10;nan;99863.41;5031664;28;20011;-78
2023/04/25 03:18:13;;;;;;;;;;;;;;;8.09;nan;99867.88;5030057;28;19982;-78
2023/04/25 03:20:41;;;;;;;;;;;;;;;8.08;nan;99863.59;5030951;28;20007;-78
2023/04/25 03:23:06;;;;;;;;;;;;;;;8.04;nan;99859.59;5029415;28;19920;-78
2023/04/25 03:25:31;;;;;;;;;;;;;;;8.03;nan;99860.59;5048304;28;19927;-78
2023/04/25 03:27:57;;;;;;;;;;;;;;;8.03;nan;99863.22;5049018;28;19909;-78
2023/04/25 03:30:22;;;;;;;;;;;;;;;8.01;nan;99867.00;5056267;28;20282;-78
2023/04/25 03:32:47;;;;;;;;;;;;;;;8.00;nan;99863.50;5029833;28;19921;-78
2023/04/25 03:35:12;;;;;;;;;;;;;;;8.00;nan;99865.31;5028688;28;20010;-76
2023/04/25 03:37:37;;;;;;;;;;;;;;;8.00;nan;99858.25;5030649;28;20046;-78
2023/04/25 03:40:03;;;;;;;;;;;;;;;8.00;nan;99863.50;5030396;28;20433;-78
2023/04/25 03:42:29;;;;;;;;;;;;;;;7.98;nan;99867.28;5029924;28;20253;-77
2023/04/25 03:44:54;;;;;;;;;;;;;;;7.97;nan;99870.91;5048178;28;19982;-79
2023/04/25 03:47:19;;;;;;;;;;;;;;;7.98;nan;99870.72;5030439;28;19978;-78
2023/04/25 03:49:45;;;;;;;;;;;;;;;8.00;nan;99870.59;5027356;28;20424;-78
2023/04/25 03:52:10;;;;;;;;;;;;;;;8.02;nan;99866.00;5045077;28;20276;-77
2023/04/25 03:54:35;;;;;;;;;;;;;;;8.02;nan;99866.00;5026061;28;19975;-78
2023/04/25 03:57:00;;;;;;;;;;;;;;;8.00;nan;99866.16;5048122;28;20032;-78
2023/04/25 03:59:26;;;;;;;;;;;;;;;8.00;nan;99865.31;5030137;28;19920;-78
2023/04/25 04:01:51;;;;;;;;;;;;;;;7.99;nan;99871.56;5044108;28;19924;-78
2023/04/25 04:04:16;;;;;;;;;;;;;;;8.00;nan;99875.84;5043678;28;19921;-78
2023/04/25 04:06:42;;;;;;;;;;;;;;;8.01;nan;99875.72;5043687;28;20082;-78
2023/04/25 04:09:10;;;;;;;;;;;;;;;8.02;nan;99877.34;5029686;28;19921;-78
2023/04/25 04:11:38;;;;;;;;;;;;;;;7.99;nan;99880.28;5047094;28;19931;-77
2023/04/25 04:14:03;;;;;;;;;;;;;;;7.95;nan;99878.94;5028709;28;19928;-79
2023/04/25 04:16:28;;;;;;;;;;;;;;;7.91;nan;99882.84;5030065;28;20728;-78
2023/04/25 04:18:53;;;;;;;;;;;;;;;7.91;nan;99880.22;5050635;28;19942;-79
2023/04/25 04:21:19;;;;;;;;;;;;;;;7.93;nan;99877.44;5033682;28;19925;-79
2023/04/25 04:23:44;;;;;;;;;;;;;;;7.95;nan;99883.38;5050536;28;20389;-78
2023/04/25 04:26:09;;;;;;;;;;;;;;;7.93;nan;99877.44;5051084;28;19925;-79
2023/04/25 04:28:35;;;;;;;;;;;;;;;7.92;nan;99889.78;5035664;28;19925;-78
2023/04/25 04:31:02;;;;;;;;;;;;;;;7.93;nan;99885.34;5055934;28;20563;-78
2023/04/25 04:33:27;;;;;;;;;;;;;;;7.93;nan;99891.41;5038850;28;20344;-78
2023/04/25 04:35:53;;;;;;;;;;;;;;;7.93;nan;99896.69;5056581;28;19925;-78
2023/04/25 04:38:19;;;;;;;;;;;;;;;7.94;nan;99889.63;5036769;28;19921;-79
2023/04/25 04:40:44;;;;;;;;;;;;;;;7.97;nan;99897.22;5048369;28;19929;-79
2023/04/25 04:43:10;;;;;;;;;;;;;;;8.01;nan;99893.31;5035863;28;20011;-78
2023/04/25 04:45:36;;;;;;;;;;;;;;;8.04;nan;99895.66;5036585;28;20280;-78
2023/04/25 04:48:01;;;;;;;;;;;;;;;8.04;nan;99891.19;5038699;28;20015;-78
2023/04/25 04:50:27;;;;;;;;;;;;;;;8.05;nan;99900.75;5036798;28;20039;-79
2023/04/25 04:52:52;;;;;;;;;;;;;;;8.07;nan;99903.22;5056877;28;19921;-79
2023/04/25 04:55:17;;;;;;;;;;;;;;;8.06;nan;99906.84;5033564;28;19920;-79
2023/04/25 04:57:42;;;;;;;;;;;;;;;8.07;nan;99903.22;5054240;28;19921;-79
2023/04/25 05:00:10;;;;;;;;;;;;;;;8.07;nan;99911.94;5034143;28;19935;-78
2023/04/25 05:02:36;;;;;;;;;;;;;;;8.07;nan;99911.94;5054277;28;19925;-79
2023/04/25 05:05:01;;;;;;;;;;;;;;;8.09;nan;99907.38;5044759;28;19967;-78
2023/04/25 05:07:26;;;;;;;;;;;;;;;8.11;nan;99919.56;5046945;28;19920;-78
2023/04/25 05:09:51;;;;;;;;;;;;;;;8.11;nan;99919.56;5053028;28;19921;-80
2023/04/25 05:12:16;;;;;;;;;;;;;;;8.12;nan;99924.66;5033522;28;20559;-78
2023/04/25 05:14:41;;;;;;;;;;;;;;;8.13;nan;99923.72;5032871;28;19925;-79
2023/04/25 05:17:08;;;;;;;;;;;;;;;8.13;nan;99922.84;5036914;28;19948;-79
2023/04/25 05:19:33;;;;;;;;;;;;;;;8.14;nan;99930.63;5036262;28;19927;-79
2023/04/25 05:21:58;;;;;;;;;;;;;;;8.19;nan;99924.91;5036163;28;19928;-78
2023/04/25 05:24:24;;;;;;;;;;;;;;;8.24;nan;99927.91;5053735;28;19943;-78
2023/04/25 05:26:49;;;;;;;;;;;;;;;8.25;nan;99926.94;5051100;28;19920;-78
2023/04/25 05:29:14;;;;;;;;;;;;;;;8.26;nan;99928.59;5037284;28;19927;-78
2023/04/25 05:31:39;;;;;;;;;;;;;;;8.24;nan;99923.47;5035549;28;19931;-78
2023/04/25 05:34:05;;;;;;;;;;;;;;;8.27;nan;99931.06;5055011;28;19920;-79
2023/04/25 05:36:32;;;;;;;;;;;;;;;8.29;nan;99934.41;5050199;28;20015;-78
2023/04/25 05:38:57;;;;;;;;;;;;;;;8.25;nan;99932.22;5033481;28;19960;-77
2023/04/25 05:41:22;;;;;;;;;;;;;;;8.25;nan;99938.31;5034196;28;19928;-79
2023/04/25 05:43:49;;;;;;;;;;;;;;;8.26;nan;99941.75;5033308;28;19929;-78
2023/04/25 05:46:15;;;;;;;;;;;;;;;8.29;nan;99939.66;5053728;28;20334;-79
2023/04/25 05:48:40;;;;;;;;;;;;;;;8.29;nan;99937.03;5054176;28;19909;-79
2023/04/25 05:51:05;;;;;;;;;;;;;;;8.29;nan;99933.53;5033246;28;19960;-77
2023/04/25 05:53:31;;;;;;;;;;;;;;;8.34;nan;99938.34;5045188;28;19921;-79
2023/04/25 05:55:56;;;;;;;;;;;;;;;8.38;nan;99937.91;5050345;28;19921;-79
2023/04/25 05:58:21;;;;;;;;;;;;;;;8.50;nan;99941.16;5033719;28;19928;-78
2023/04/25 06:00:47;;;;;;;;;;;;;;;8.65;nan;99944.06;5050842;28;19948;-79
2023/04/25 06:03:14;;;;;;;;;;;;;;;8.73;nan;99945.97;5045696;28;20531;-79
2023/04/25 06:05:39;;;;;;;;;;;;;;;8.74;nan;99952.88;5051288;28;19928;-79
2023/04/25 06:08:05;;;;;;;;;;;;;;;8.71;nan;99954.00;5052750;28;19928;-79
2023/04/25 06:10:30;;;;;;;;;;;;;;;8.68;nan;99947.25;5050085;28;19932;-79
2023/04/25 06:12:58;;;;;;;;;;;;;;;8.73;nan;99951.22;5048885;28;20332;-79
2023/04/25 06:15:23;;;;;;;;;;;;;;;8.71;nan;99949.56;5034270;28;19928;-78
2023/04/25 06:17:49;;;;;;;;;;;;;;;8.73;nan;99953.88;5023134;28;19924;-78
2023/04/25 06:20:14;;;;;;;;;;;;;;;8.75;nan;99954.50;5032352;28;19939;-79
2023/04/25 06:22:39;;;;;;;;;;;;;;;8.69;nan;99951.50;5050517;28;19940;-78
2023/04/25 06:25:04;;;;;;;;;;;;;;;8.70;nan;99962.91;5052809;28;19956;-79
2023/04/25 06:27:30;;;;;;;;;;;;;;;8.63;nan;99953.97;5049012;28;19935;-79
2023/04/25 06:29:55;;;;;;;;;;;;;;;8.48;nan;99953.66;5049923;28;20327;-80
2023/04/25 06:32:20;;;;;;;;;;;;;;;8.48;nan;99959.75;5046025;28;20397;-79
2023/04/25 06:34:45;;;;;;;;;;;;;;;8.41;nan;99961.34;5052637;28;19921;-78
2023/04/25 06:37:10;;;;;;;;;;;;;;;8.42;nan;99963.00;5034222;28;19925;-78
2023/04/25 06:39:36;;;;;;;;;;;;;;;8.38;nan;99966.88;5032251;28;19994;-78
2023/04/25 06:42:01;;;;;;;;;;;;;;;8.19;nan;99974.94;5047047;28;19920;-80
2023/04/25 06:44:28;;;;;;;;;;;;;;;8.13;nan;99976.38;5035603;28;19929;-79
2023/04/25 06:46:53;;;;;;;;;;;;;;;8.09;nan;99972.38;5056854;28;19928;-84
2023/04/25 06:49:18;;;;;;;;;;;;;;;8.03;nan;99975.59;5045735;28;19921;-85
2023/04/25 06:51:45;;;;;;;;;;;;;;;8.13;nan;99976.38;5068644;28;19948;-89
2023/04/25 06:54:10;;;;;;;;;;;;;;;8.22;nan;99974.63;5068706;28;19919;-84
2023/04/25 06:56:35;;;;;;;;;;;;;;;8.22;nan;99983.38;5048754;28;19921;-87
2023/04/25 06:59:00;;;;;;;;;;;;;;;8.28;nan;99976.69;5067794;28;20002;-85
2023/04/25 07:01:30;;;;;;;;;;;;;;;8.27;nan;99982.91;5061997;22;19932;-88
2023/04/25 07:03:57;;;;;;;;;;;;;;;8.35;nan;99977.72;5037282;28;19925;-87
2023/04/25 07:06:26;;;;;;;;;;;;;;;8.45;nan;99985.59;5065663;28;19908;-88
2023/04/25 07:09:14;;;;;;;;;;;;;;;8.64;nan;99990.69;5075528;28;19943;-88
2023/04/25 07:11:40;;;;;;;;;;;;;;;8.76;nan;99986.00;5048192;28;19925;-87
2023/04/25 07:14:07;;;;;;;;;;;;;;;8.81;nan;99989.00;5037677;28;19924;-89
2023/04/25 07:16:32;;;;;;;;;;;;;;;8.97;nan;99987.47;5047363;28;19960;-89
2023/04/25 07:18:59;;;;;;;;;;;;;;;9.06;nan;99991.81;5049722;28;19990;-89
2023/04/25 07:21:27;;;;;;;;;;;;;;;9.14;nan;99997.97;5038220;28;19921;-88
2023/04/25 07:23:53;;;;;;;;;;;;;;;8.97;nan;99992.75;5046042;28;19956;-88
2023/04/25 07:26:48;;;;;;;;;;;;;;;;;;;;;
2023/04/25 07:29:14;;;;;;;;;;;;;;;8.70;nan;99991.91;5084310;28;20311;-88
2023/04/25 07:31:39;;;;;;;;;;;;;;;8.62;nan;100005.00;5061632;28;20019;-88
2023/04/25 07:34:46;;;;;;;;;;;;;;;8.66;nan;100004.53;5068038;28;19970;-87
2023/04/25 07:37:41;;;;;;;;;;;;;;;8.43;nan;100003.34;5054716;28;19924;-90
2023/04/25 07:40:16;;;;;;;;;;;;;;;8.42;nan;100001.69;5038895;28;19952;-87
2023/04/25 07:42:41;;;;;;;;;;;;;;;8.55;nan;100010.03;5058738;28;19920;-89
2023/04/25 07:45:09;;;;;;;;;;;;;;;8.56;nan;100006.44;5051909;28;20239;-87
2023/04/25 07:47:34;;;;;;;;;;;;;;;8.65;nan;100005.53;5050009;28;20361;-87
2023/04/25 07:50:00;;;;;;;;;;;;;;;8.79;nan;100017.31;5036654;28;19924;-87
2023/04/25 07:55:28;;;;;;;;;;;;;;;9.00;nan;100021.44;5063299;28;19923;-88
2023/04/25 07:57:54;;;;;;;;;;;;;;;9.19;nan;100030.97;5062173;28;20366;-88
2023/04/25 08:00:19;;;;;;;;;;;;;;;9.24;nan;100029.50;5042941;28;19928;-88
2023/04/25 08:02:44;;;;;;;;;;;;;;;9.56;nan;100044.72;5047143;28;19929;-88
2023/04/25 08:05:15;;;;;;;;;;;;;;;9.98;nan;100041.25;5062505;28;19924;-89
2023/04/25 08:07:41;;;;;;;;;;;;;;;10.11;nan;100040.81;5061916;28;19970;-89
2023/04/25 08:10:07;;;;;;;;;;;;;;;10.26;nan;100041.00;5061776;28;19952;-87
2023/04/25 08:12:33;;;;;;;;;;;;;;;10.50;nan;100039.44;5083006;28;19928;-87
2023/04/25 08:14:58;;;;;;;;;;;;;;;11.01;nan;100042.75;5066951;28;19928;-87
2023/04/25 08:17:23;;;;;;;;;;;;;;;11.15;nan;100049.19;5086170;28;19925;-88
2023/04/25 08:19:48;;;;;;;;;;;;;;;10.91;nan;100052.69;5063360;28;19962;-88
2023/04/25 08:22:14;;;;;;;;;;;;;;;10.84;nan;100063.09;5080462;28;19932;-87
2023/04/25 08:24:47;;;;;;;;;;;;;;;10.79;nan;100074.16;5051582;28;20004;-88
2023/04/25 08:27:13;;;;;;;;;;;;;;;10.74;nan;100067.72;5056137;28;19921;-87
2023/04/25 08:29:38;;;;;;;;;;;;;;;10.98;nan;100070.38;5075330;28;19928;-88
2023/04/25 08:32:03;;;;;;;;;;;;;;;11.11;nan;100084.91;5062107;28;19924;-90
2023/04/25 08:34:31;;;;;;;;;;;;;;;11.17;nan;100079.78;5065048;28;21158;-88
2023/04/25 08:36:56;;;;;;;;;;;;;;;10.99;nan;100084.44;5065247;28;19947;-89
2023/04/25 08:39:30;;;;;;;;;;;;;;;10.80;nan;100082.94;5063754;28;19920;-90
2023/04/25 08:41:56;;;;;;;;;;;;;;;10.82;nan;100086.22;5056328;28;20008;-86
2023/04/25 08:44:31;;;;;;;;;;;;;;;10.89;nan;100089.88;5062432;28;21830;-87
2023/04/25 08:46:57;;;;;;;;;;;;;;;10.80;nan;100085.59;5046107;28;19925;-87
2023/04/25 08:49:26;;;;;;;;;;;;;;;10.60;nan;100099.09;5053884;28;20290;-88
2023/04/25 08:52:05;;;;;;;;;;;;;;;10.57;nan;100106.53;5050629;28;20015;-88
2023/04/25 08:54:31;;;;;;;;;;;;;;;10.74;nan;100105.56;5033815;28;19924;-87
2023/04/25 08:57:03;;;;;;;;;;;;;;;10.76;nan;100108.06;5053673;28;19931;-88
2023/04/25 08:59:29;;;;;;;;;;;;;;;10.85;nan;100117.66;5051821;28;20471;-88
2023/04/25 09:01:55;;;;;;;;;;;;;;;10.73;nan;100117.16;5052262;28;19920;-87
2023/04/25 09:04:20;;;;;;;;;;;;;;;10.72;nan;100123.41;5051508;28;19958;-87
2023/04/25 09:07:37;;;;;;;;;;;;;;;10.74;nan;100123.25;5054030;28;19962;-87
2023/04/25 09:09:56;;;;;;;;;;;;;;;10.72;nan;100131.34;5066304;28;19924;-88
2023/04/25 09:12:22;;;;;;;;;;;;;;;10.81;nan;100129.56;5042285;28;20485;-87
2023/04/25 09:15:10;;;;;;;;;;;;;;;10.77;nan;100128.22;5051165;28;19921;-87
2023/04/25 09:17:39;;;;;;;;;;;;;;;10.79;nan;100135.00;5070129;28;20441;-87
2023/04/25 09:20:09;;;;;;;;;;;;;;;10.89;nan;100134.03;5051026;28;19921;-88
2023/04/25 09:22:34;;;;;;;;;;;;;;;11.04;nan;100140.34;5041579;28;20462;-87
2023/04/25 09:25:02;;;;;;;;;;;;;;;11.29;nan;100143.81;5051202;28;19921;-87
2023/04/25 09:27:27;;;;;;;;;;;;;;;11.36;nan;100149.25;5050315;28;19970;-87
2023/04/25 09:29:57;;;;;;;;;;;;;;;11.51;nan;100144.94;5064598;28;19928;-87
2023/04/25 09:32:23;;;;;;;;;;;;;;;11.57;nan;100144.28;5032617;28;19928;-88
2023/04/25 09:34:55;;;;;;;;;;;;;;;11.70;nan;100149.06;5044815;28;20023;-88
2023/04/25 09:37:22;;;;;;;;;;;;;;;11.81;nan;100148.72;5048526;28;20319;-87
2023/04/25 09:40:17;;;;;;;;;;;;;;;11.85;nan;100149.22;5064574;28;19934;-87
2023/04/25 09:42:42;;;;;;;;;;;;;;;11.79;nan;100155.16;5051988;28;20060;-87
2023/04/25 09:45:12;;;;;;;;;;;;;;;11.79;nan;100163.94;5066770;28;19920;-88
2023/04/25 09:47:44;;;;;;;;;;;;;;;11.63;nan;100167.47;5065610;28;20023;-88
2023/04/25 09:50:16;;;;;;;;;;;;;;;11.60;nan;100170.41;5048250;28;19974;-87
2023/04/25 09:52:41;;;;;;;;;;;;;;;11.45;nan;100167.63;5053449;28;19932;-89
2023/04/25 09:55:07;;;;;;;;;;;;;;;11.96;nan;100172.72;5066966;28;20396;-87
2023/04/25 09:57:32;;;;;;;;;;;;;;;12.38;nan;100176.06;5058520;28;19959;-87
2023/04/25 10:00:00;;;;;;;;;;;;;;;13.39;nan;100177.78;5046335;28;19921;-88
2023/04/25 10:02:26;;;;;;;;;;;;;;;13.45;nan;100173.59;5059150;28;20447;-88
2023/04/25 10:04:54;;;;;;;;;;;;;;;13.43;nan;100180.94;5044908;28;19924;-87
2023/04/25 10:07:25;;;;;;;;;;;;;;;13.65;nan;100179.22;5067403;28;19920;-87
2023/04/25 10:10:02;;;;;;;;;;;;;;;14.18;nan;100174.69;5064880;28;19925;-88
2023/04/25 10:12:27;;;;;;;;;;;;;;;14.98;nan;100184.50;5035666;28;19940;-88
2023/04/25 10:14:53;;;;;;;;;;;;;;;16.23;nan;100180.38;5060857;28;19921;-88
2023/04/25 10:17:19;;;;;;;;;;;;;;;17.10;nan;100186.88;5059653;28;19921;-88
2023/04/25 10:19:45;;;;;;;;;;;;;;;17.96;nan;100174.56;5061394;28;20019;-87
2023/04/25 10:22:13;;;;;;;;;;;;;;;18.49;nan;100185.09;5064782;28;19931;-87
2023/04/25 10:24:39;;;;;;;;;;;;;;;19.00;nan;100186.16;5065074;28;19920;-87
2023/04/25 10:27:05;;;;;;;;;;;;;;;18.68;nan;100188.75;5049953;28;19927;-88
2023/04/25 10:29:30;;;;;;;;;;;;;;;17.83;nan;100178.91;5044766;28;20027;-87
2023/04/25 10:31:56;;;;;;;;;;;;;;;16.21;nan;100184.25;5048115;28;19924;-87
2023/04/25 10:34:37;;;;;;;;;;;;;;;14.82;nan;100185.53;5060095;28;19928;-87
2023/04/25 10:37:03;;;;;;;;;;;;;;;14.39;nan;100187.25;5061270;28;19921;-87
2023/04/25 10:39:28;;;;;;;;;;;;;;;13.85;nan;100184.84;5064088;28;19949;-87
2023/04/25 10:41:57;;;;;;;;;;;;;;;13.80;nan;100182.75;5046656;28;20315;-88
2023/04/25 10:44:25;;;;;;;;;;;;;;;13.73;nan;100184.47;5044261;28;19954;-87
2023/04/25 10:46:51;;;;;;;;;;;;;;;13.88;nan;100187.16;5042914;28;20180;-88
2023/04/25 10:49:31;;;;;;;;;;;;;;;13.94;nan;100187.25;5039249;28;20039;-86
2023/04/25 10:52:15;;;;;;;;;;;;;;;14.23;nan;100190.94;5061950;28;19931;-87
2023/04/25 10:54:42;;;;;;;;;;;;;;;14.70;nan;100194.22;5062433;28;19924;-87
2023/04/25 10:57:07;;;;;;;;;;;;;;;14.06;nan;100190.28;5063118;28;19924;-86
2023/04/25 10:59:32;;;;;;;;;;;;;;;13.88;nan;100195.94;5044331;28;19928;-88
2023/04/25 11:01:57;;;;;;;;;;;;;;;13.46;nan;100196.50;5044874;28;19920;-87
2023/04/25 11:04:35;;;;;;;;;;;;;;;12.83;nan;100201.06;5045285;28;20392;-87
2023/04/25 11:07:07;;;;;;;;;;;;;;;12.42;nan;100199.41;5047749;28;20066;-88
2023/04/25 11:09:33;;;;;;;;;;;;;;;11.98;nan;100212.28;5044484;28;19944;-87
2023/04/25 11:12:00;;;;;;;;;;;;;;;11.85;nan;100204.84;5047306;28;19925;-87
2023/04/25 11:14:29;;;;;;;;;;;;;;;11.71;nan;100208.16;5062643;28;19923;-87
2023/04/25 11:16:55;;;;;;;;;;;;;;;11.66;nan;100206.84;5048613;28;19920;-87
2023/04/25 11:19:20;;;;;;;;;;;;;;;11.60;nan;100202.19;5047462;28;19931;-87
2023/04/25 11:21:46;;;;;;;;;;;;;;;11.78;nan;100204.69;5065814;28;19996;-88
2023/04/25 11:24:14;;;;;;;;;;;;;;;11.80;nan;100209.81;5074477;28;19956;-89
2023/04/25 11:26:43;;;;;;;;;;;;;;;11.86;nan;100211.78;5051679;28;19974;-89
2023/04/25 11:29:08;;;;;;;;;;;;;;;11.79;nan;100216.09;5073469;28;19920;-88
2023/04/25 11:31:33;;;;;;;;;;;;;;;11.83;nan;100220.06;5070016;28;19935;-89
2023/04/25 11:33:59;;;;;;;;;;;;;;;11.53;nan;100217.09;5063057;28;19921;-88
2023/04/25 11:36:25;;;;;;;;;;;;;;;11.51;nan;100227.03;5048100;28;19927;-87
2023/04/25 11:38:51;;;;;;;;;;;;;;;11.39;nan;100229.19;5069086;28;19924;-88
2023/04/25 11:41:17;;;;;;;;;;;;;;;11.56;nan;100229.19;5081458;28;19920;-85
2023/04/25 11:43:42;;;;;;;;;;;;;;;11.83;nan;100231.50;5074915;28;19921;-87
2023/04/25 11:46:08;;;;;;;;;;;;;;;12.29;nan;100225.63;5077414;28;19963;-89
2023/04/25 11:48:39;;;;;;;;;;;;;;;12.83;nan;100227.59;5054756;28;20334;-86
2023/04/25 11:51:05;;;;;;;;;;;;;;;13.77;nan;100228.28;5058500;28;20020;-87
2023/04/25 11:53:30;;;;;;;;;;;;;;;14.69;nan;100227.97;5049787;28;20224;-88
2023/04/25 11:55:55;;;;;;;;;;;;;;;14.43;nan;100233.75;5069976;28;19921;-87
2023/04/25 11:58:21;;;;;;;;;;;;;;;13.98;nan;100236.38;5049823;28;20380;-88
2023/04/25 12:00:46;;;;;;;;;;;;;;;13.66;nan;100234.88;5054746;28;19920;-86
2023/04/25 12:03:12;;;;;;;;;;;;;;;13.33;nan;100232.44;5068063;28;19920;-86
2023/04/25 12:05:37;;;;;;;;;;;;;;;13.03;nan;100243.88;5051697;28;19924;-87
2023/04/25 12:08:17;;;;;;;;;;;;;;;12.66;nan;100248.88;5052379;28;19987;-86
2023/04/25 12:10:44;;;;;;;;;;;;;;;12.18;nan;100245.41;5063913;22;20185;-87
2023/04/25 12:15:40;;;;;;;;;;;;;;;11.97;nan;100248.56;5065322;22;19925;-78
2023/04/25 12:18:06;;;;;;;;;;;;;;;12.30;nan;100246.69;5037705;28;19928;-78
2023/04/25 12:20:31;;;;;;;;;;;;;;;12.28;nan;100250.50;5038692;28;20403;-78
2023/04/25 12:22:56;;;;;;;;;;;;;;;12.20;nan;100243.38;5037613;28;19929;-78
2023/04/25 12:25:35;;;;;;;;;;;;;;;12.21;nan;100246.88;5055864;28;19921;-78
2023/04/25 12:28:31;;;;;;;;;;;;;;;12.17;nan;100250.84;5037918;28;19944;-79
2023/04/25 12:31:06;;;;;;;;;;;;;;;12.42;nan;100247.16;5031695;28;19924;-78
2023/04/25 12:33:43;;;;;;;;;;;;;;;12.63;nan;100254.53;5060380;28;20308;-80
2023/04/25 12:36:10;;;;;;;;;;;;;;;12.83;nan;100254.13;5037484;28;19964;-78
2023/04/25 12:38:36;;;;;;;;;;;;;;;13.12;nan;100253.47;5039408;28;20014;-78
2023/04/25 12:41:01;;;;;;;;;;;;;;;13.48;nan;100253.75;5056782;28;19925;-78
2023/04/25 12:43:27;;;;;;;;;;;;;;;13.43;nan;100253.47;5053215;28;19928;-78
2023/04/25 12:45:53;;;;;;;;;;;;;;;13.43;nan;100255.28;5039537;28;20011;-78
2023/04/25 12:48:19;;;;;;;;;;;;;;;13.38;nan;100259.28;5027896;28;19924;-83
2023/04/25 12:50:44;;;;;;;;;;;;;;;13.71;nan;100258.25;5050638;28;19920;-79
2023/04/25 12:53:10;;;;;;;;;;;;;;;13.98;nan;100255.00;5032713;28;20447;-79
2023/04/25 12:55:35;;;;;;;;;;;;;;;14.06;nan;100261.22;5040800;28;19934;-80
2023/04/25 12:58:00;;;;;;;;;;;;;;;14.17;nan;100261.63;5034605;28;19977;-79
2023/04/25 13:00:28;;;;;;;;;;;;;;;14.31;nan;100265.31;5035059;28;19955;-79
2023/04/25 13:02:53;;;;;;;;;;;;;;;13.91;nan;100259.38;5028246;28;20308;-84
2023/04/25 13:05:18;;;;;;;;;;;;;;;14.02;nan;100258.94;5036558;28;19922;-81
2023/04/25 13:07:43;;;;;;;;;;;;;;;14.07;nan;100269.03;5041720;28;19925;-79
2023/04/25 13:10:08;;;;;;;;;;;;;;;13.97;nan;100268.47;5021243;28;19921;-79
2023/04/25 13:12:34;;;;;;;;;;;;;;;14.26;nan;100264.22;5038281;28;20649;-81
2023/04/25 13:14:59;;;;;;;;;;;;;;;14.08;nan;100264.53;5045014;28;19921;-80